Time;durP1;ratioP1;P1;durP2;ratioP2;P2;SDS_P1;SDS_P2;PMS_P1;PMS_P2;Temp;Humidity;BMP_temperature;BMP_pressure;BME280_temperature;BME280_humidity;BME280_pressure;Samples;Min_cycle;Max_cycle;Signal;HPM_P1;HPM_P2
2021/12/19 00:12:10;;;;;;;;;;;7.30;99.90;;;;;;8386452;28;19975;-70
2021/12/19 00:16:12;;;;;;;;;;;7.30;99.90;;;;;;8375800;28;20327;-69
2021/12/19 00:20:14;;;;;;;;;;;7.30;99.90;;;;;;8388466;28;19930;-70
2021/12/19 00:24:35;;;;;;;;;;;7.20;99.90;;;;;;8381400;28;20015;-70
2021/12/19 00:28:37;;;;;;;;;;;7.20;99.90;;;;;;8389514;28;19947;-69
2021/12/19 00:32:40;;;;;;;;;;;7.20;99.90;;;;;;8386953;28;20388;-70
2021/12/19 00:36:42;;;;;;;;;;;7.20;99.90;;;;;;8389011;28;19931;-70
2021/12/19 00:40:44;;;;;;;;;;;7.30;99.90;;;;;;8385632;28;19925;-69
2021/12/19 00:44:45;;;;;;;;;;;7.30;99.90;;;;;;8374924;28;19967;-69
2021/12/19 00:48:48;;;;;;;;;;;7.20;99.90;;;;;;8390467;28;20366;-70
2021/12/19 00:52:50;;;;;;;;;;;7.20;99.90;;;;;;8384882;28;20372;-70
2021/12/19 00:56:51;;;;;;;;;;;7.20;99.90;;;;;;8392898;28;19929;-70
2021/12/19 01:00:53;;;;;;;;;;;7.20;99.90;;;;;;8363840;28;19969;-70
2021/12/19 01:04:55;;;;;;;;;;;7.20;99.90;;;;;;8390171;28;20275;-70
2021/12/19 01:08:56;;;;;;;;;;;7.20;99.90;;;;;;8385830;28;19932;-70
2021/12/19 01:12:58;;;;;;;;;;;7.20;99.90;;;;;;8390722;28;20383;-69
2021/12/19 01:17:00;;;;;;;;;;;7.10;99.90;;;;;;8392546;28;19931;-70
2021/12/19 01:21:01;;;;;;;;;;;7.10;99.90;;;;;;8381520;28;19967;-70
2021/12/19 01:25:03;;;;;;;;;;;7.00;99.90;;;;;;8392121;28;19924;-70
2021/12/19 01:29:05;;;;;;;;;;;7.00;99.90;;;;;;8387761;28;19987;-70
2021/12/19 01:33:06;;;;;;;;;;;7.00;99.90;;;;;;8393450;28;19932;-69
2021/12/19 01:37:08;;;;;;;;;;;7.00;99.90;;;;;;8389541;28;19978;-70
2021/12/19 01:41:10;;;;;;;;;;;7.00;99.90;;;;;;8391436;28;19964;-70
2021/12/19 01:45:12;;;;;;;;;;;7.00;99.90;;;;;;8363268;28;19960;-70
2021/12/19 01:49:14;;;;;;;;;;;7.00;99.90;;;;;;8382786;28;19924;-71
2021/12/19 01:53:16;;;;;;;;;;;7.00;99.90;;;;;;8388450;28;20383;-70
2021/12/19 01:57:18;;;;;;;;;;;7.10;99.90;;;;;;8401242;28;19925;-70
2021/12/19 02:01:19;;;;;;;;;;;7.00;99.90;;;;;;8392229;28;19971;-69
2021/12/19 02:05:22;;;;;;;;;;;7.00;99.90;;;;;;8391529;28;20043;-70
2021/12/19 02:09:25;;;;;;;;;;;7.10;99.90;;;;;;8395537;28;20689;-71
2021/12/19 02:13:26;;;;;;;;;;;7.10;99.90;;;;;;8393224;28;19983;-69
2021/12/19 02:17:28;;;;;;;;;;;7.10;99.90;;;;;;8385654;28;19968;-70
2021/12/19 02:21:30;;;;;;;;;;;7.20;99.90;;;;;;8370765;28;19942;-70
2021/12/19 02:25:32;;;;;;;;;;;7.20;99.90;;;;;;8392212;28;19936;-70
2021/12/19 02:29:33;;;;;;;;;;;7.20;99.90;;;;;;8372297;28;19972;-70
2021/12/19 02:33:40;;;;;;;;;;;7.20;99.90;;;;;;8392565;28;20312;-70
2021/12/19 02:38:07;;;;;;;;;;;7.20;99.90;;;;;;8375973;28;19972;-70
2021/12/19 02:50:51;;;;;;;;;;;7.20;99.90;;;;;;8389025;28;19924;-70
2021/12/19 02:54:53;;;;;;;;;;;7.20;99.90;;;;;;8390009;28;19974;-69
2021/12/19 02:58:55;;;;;;;;;;;7.20;99.90;;;;;;8372355;28;19924;-70
2021/12/19 03:02:56;;;;;;;;;;;7.10;99.90;;;;;;8390038;28;19983;-70
2021/12/19 03:06:58;;;;;;;;;;;7.10;99.90;;;;;;8393673;28;19956;-70
2021/12/19 03:19:27;;;;;;;;;;;7.00;99.90;;;;;;8381124;28;20031;-70
2021/12/19 03:23:29;;;;;;;;;;;7.00;99.90;;;;;;8383844;28;19976;-70
2021/12/19 03:27:30;;;;;;;;;;;7.00;99.90;;;;;;8390058;28;20007;-70
2021/12/19 03:31:32;;;;;;;;;;;7.00;99.90;;;;;;8388154;28;20024;-70
2021/12/19 03:35:34;;;;;;;;;;;7.10;99.90;;;;;;8388212;28;19925;-70
2021/12/19 03:39:55;;;;;;;;;;;7.10;99.90;;;;;;8392739;28;19931;-70
2021/12/19 03:43:57;;;;;;;;;;;7.10;99.90;;;;;;8390252;28;19968;-70
2021/12/19 03:48:00;;;;;;;;;;;7.10;99.90;;;;;;8390578;28;19928;-70
2021/12/19 03:52:02;;;;;;;;;;;7.10;99.90;;;;;;8374930;28;19971;-70
2021/12/19 03:56:04;;;;;;;;;;;7.10;99.90;;;;;;8387385;28;19964;-70
2021/12/19 04:00:07;;;;;;;;;;;7.20;99.90;;;;;;8391190;28;19932;-70
2021/12/19 04:04:09;;;;;;;;;;;7.10;99.90;;;;;;8372372;28;19943;-70
2021/12/19 04:08:11;;;;;;;;;;;7.20;99.90;;;;;;8389152;28;19928;-70
2021/12/19 04:12:13;;;;;;;;;;;7.20;99.90;;;;;;8393162;28;20004;-70
2021/12/19 04:16:14;;;;;;;;;;;7.20;99.90;;;;;;8388318;28;20376;-70
2021/12/19 04:20:18;;;;;;;;;;;7.20;99.90;;;;;;8383693;28;19998;-70
2021/12/19 04:24:19;;;;;;;;;;;7.30;99.90;;;;;;8373290;28;19952;-70
2021/12/19 04:28:21;;;;;;;;;;;7.30;99.90;;;;;;8388920;28;19978;-70
2021/12/19 04:32:28;;;;;;;;;;;7.30;99.90;;;;;;8389763;28;20335;-70
2021/12/19 04:36:35;;;;;;;;;;;7.30;99.90;;;;;;8374367;28;19931;-70
2021/12/19 04:53:49;;;;;;;;;;;7.30;99.90;;;;;;8383892;28;19925;-70
2021/12/19 04:58:13;;;;;;;;;;;7.30;99.90;;;;;;8392278;28;19976;-70
2021/12/19 05:15:24;;;;;;;;;;;7.40;99.90;;;;;;8330999;28;19963;-69
2021/12/19 05:19:42;;;;;;;;;;;7.40;99.90;;;;;;8390736;28;19929;-70
2021/12/19 05:27:53;;;;;;;;;;;7.50;99.90;;;;;;8389789;28;19955;-70
2021/12/19 05:31:55;;;;;;;;;;;7.50;99.90;;;;;;8389123;28;20015;-69
2021/12/19 05:44:07;;;;;;;;;;;7.50;99.90;;;;;;8375626;28;19972;-70
2021/12/19 05:48:55;;;;;;;;;;;7.60;99.90;;;;;;8388641;28;19924;-70
2021/12/19 05:52:56;;;;;;;;;;;7.60;99.90;;;;;;8375099;28;19925;-70
2021/12/19 05:56:58;;;;;;;;;;;7.60;99.90;;;;;;8381551;28;19932;-70
2021/12/19 06:00:59;;;;;;;;;;;7.60;99.90;;;;;;8367458;28;20043;-70
2021/12/19 06:05:01;;;;;;;;;;;7.70;99.90;;;;;;8388648;28;19924;-70
2021/12/19 06:09:03;;;;;;;;;;;7.70;99.90;;;;;;8371071;28;19928;-70
2021/12/19 06:13:05;;;;;;;;;;;7.70;99.90;;;;;;8376983;28;20372;-70
2021/12/19 06:17:06;;;;;;;;;;;7.70;99.90;;;;;;8381236;28;19924;-70
2021/12/19 06:21:09;;;;;;;;;;;7.70;99.90;;;;;;8384064;28;20376;-70
2021/12/19 06:25:10;;;;;;;;;;;7.70;99.90;;;;;;8387845;28;19924;-70
2021/12/19 06:29:12;;;;;;;;;;;7.70;99.90;;;;;;8375870;28;19998;-69
2021/12/19 06:33:14;;;;;;;;;;;7.70;99.90;;;;;;8377182;28;20368;-70
2021/12/19 06:37:16;;;;;;;;;;;7.70;99.90;;;;;;8382214;28;19925;-70
2021/12/19 06:41:17;;;;;;;;;;;7.70;99.90;;;;;;8382297;28;19948;-70
2021/12/19 06:45:19;;;;;;;;;;;7.70;99.90;;;;;;8363872;28;20304;-70
2021/12/19 06:49:21;;;;;;;;;;;7.70;99.90;;;;;;8381054;28;20463;-70
2021/12/19 06:53:23;;;;;;;;;;;7.70;99.90;;;;;;8367489;28;19974;-70
2021/12/19 06:57:24;;;;;;;;;;;7.70;99.90;;;;;;8376669;28;20006;-69
2021/12/19 07:01:26;;;;;;;;;;;7.70;99.90;;;;;;8388820;28;19936;-71
2021/12/19 07:05:27;;;;;;;;;;;7.70;99.90;;;;;;8364519;28;19924;-70
2021/12/19 07:09:29;;;;;;;;;;;7.60;99.90;;;;;;8379953;28;19924;-70
2021/12/19 07:13:31;;;;;;;;;;;7.60;99.90;;;;;;8379397;28;19957;-70
2021/12/19 07:17:33;;;;;;;;;;;7.60;99.90;;;;;;8385273;28;19925;-70
2021/12/19 07:21:34;;;;;;;;;;;7.60;99.90;;;;;;8385408;28;19928;-71
2021/12/19 07:25:36;;;;;;;;;;;7.60;99.90;;;;;;8383309;28;19925;-71
2021/12/19 07:29:38;;;;;;;;;;;7.60;99.90;;;;;;8379731;28;20410;-71
2021/12/19 07:33:39;;;;;;;;;;;7.60;99.90;;;;;;8387953;28;19944;-70
2021/12/19 07:37:41;;;;;;;;;;;7.60;99.90;;;;;;8383956;28;19924;-70
2021/12/19 07:41:42;;;;;;;;;;;7.60;99.90;;;;;;8375303;28;20028;-70
2021/12/19 07:45:44;;;;;;;;;;;7.60;99.90;;;;;;8358518;28;20448;-70
2021/12/19 07:49:46;;;;;;;;;;;7.70;99.90;;;;;;8378964;28;19933;-70
2021/12/19 07:53:47;;;;;;;;;;;7.60;99.90;;;;;;8362176;28;19924;-70
2021/12/19 07:57:49;;;;;;;;;;;7.60;99.90;;;;;;8362812;28;19932;-70
2021/12/19 08:01:51;;;;;;;;;;;7.70;99.90;;;;;;8380772;28;19960;-69
2021/12/19 08:05:53;;;;;;;;;;;7.60;99.90;;;;;;8378289;28;19975;-70
2021/12/19 08:11:39;;;;;;;;;;;7.70;99.90;;;;;;8359701;28;19944;-70
2021/12/19 08:14:19;;;;;;;;;;;7.70;99.90;;;;;;8376736;28;19964;-70
2021/12/19 08:18:21;;;;;;;;;;;7.60;99.90;;;;;;8380773;28;19991;-70
2021/12/19 08:22:23;;;;;;;;;;;7.60;99.90;;;;;;8380467;28;19978;-71
2021/12/19 08:26:25;;;;;;;;;;;7.60;99.90;;;;;;8379250;28;20309;-70
2021/12/19 08:30:28;;;;;;;;;;;7.60;99.90;;;;;;8350157;28;19925;-70
2021/12/19 08:34:29;;;;;;;;;;;7.60;99.90;;;;;;8362933;28;19935;-70
2021/12/19 08:38:31;;;;;;;;;;;7.60;99.90;;;;;;8379031;28;20008;-70
2021/12/19 08:42:34;;;;;;;;;;;7.60;99.90;;;;;;8385472;28;19990;-71
2021/12/19 08:46:37;;;;;;;;;;;7.60;99.90;;;;;;8366651;28;19925;-70
2021/12/19 08:50:40;;;;;;;;;;;7.60;99.90;;;;;;8386194;28;19929;-70
2021/12/19 08:54:41;;;;;;;;;;;7.60;99.90;;;;;;8386035;28;19925;-71
2021/12/19 08:58:43;;;;;;;;;;;7.60;99.90;;;;;;8355634;28;20431;-71
2021/12/19 09:02:47;;;;;;;;;;;7.70;99.90;;;;;;8383242;28;19960;-70
2021/12/19 09:06:49;;;;;;;;;;;7.70;99.90;;;;;;8385754;28;19934;-71
2021/12/19 09:10:51;;;;;;;;;;;7.70;99.90;;;;;;8385009;28;19964;-71
2021/12/19 09:14:53;;;;;;;;;;;7.80;99.90;;;;;;8386578;28;19966;-70
2021/12/19 09:18:55;;;;;;;;;;;7.80;99.90;;;;;;8361926;28;20442;-70
2021/12/19 09:22:57;;;;;;;;;;;7.80;99.90;;;;;;8383765;28;19925;-70
2021/12/19 09:27:00;;;;;;;;;;;7.80;99.90;;;;;;8358849;28;19940;-70
2021/12/19 09:31:02;;;;;;;;;;;7.80;99.90;;;;;;8384329;28;20466;-70
2021/12/19 09:35:04;;;;;;;;;;;7.90;99.90;;;;;;8386235;28;19920;-70
2021/12/19 09:39:06;;;;;;;;;;;8.00;99.90;;;;;;8385925;28;19928;-70
2021/12/19 09:43:21;;;;;;;;;;;8.00;99.90;;;;;;8390503;28;20007;-71
2021/12/19 09:47:22;;;;;;;;;;;8.00;99.90;;;;;;8388654;28;19927;-71
2021/12/19 09:51:24;;;;;;;;;;;8.00;99.90;;;;;;8382096;28;19966;-70
2021/12/19 09:55:25;;;;;;;;;;;8.00;99.90;;;;;;8387493;28;19959;-70
2021/12/19 09:59:27;;;;;;;;;;;8.00;99.90;;;;;;8386648;28;20400;-70
2021/12/19 10:03:29;;;;;;;;;;;8.10;99.90;;;;;;8361051;28;19924;-70
2021/12/19 10:07:31;;;;;;;;;;;8.10;99.90;;;;;;8391327;28;20024;-71
2021/12/19 10:11:45;;;;;;;;;;;8.10;99.90;;;;;;8375088;28;19927;-70
2021/12/19 10:15:46;;;;;;;;;;;8.00;99.90;;;;;;8373947;28;19963;-69
2021/12/19 10:19:49;;;;;;;;;;;8.00;99.90;;;;;;8371719;28;19924;-69
2021/12/19 10:23:51;;;;;;;;;;;8.00;99.90;;;;;;8362325;28;19960;-70
2021/12/19 10:27:54;;;;;;;;;;;8.00;99.90;;;;;;8382656;28;20039;-70
2021/12/19 10:32:05;;;;;;;;;;;8.00;99.90;;;;;;8377689;28;20369;-70
2021/12/19 10:36:07;;;;;;;;;;;8.00;99.90;;;;;;8378953;28;20360;-71
2021/12/19 10:40:09;;;;;;;;;;;8.00;99.90;;;;;;8361934;28;19964;-70
2021/12/19 10:45:29;;;;;;;;;;;8.00;99.90;;;;;;8359070;28;20288;-71
2021/12/19 10:48:37;;;;;;;;;;;8.00;99.90;;;;;;8376223;28;20332;-70
2021/12/19 10:52:39;;;;;;;;;;;8.00;99.90;;;;;;8386626;28;19962;-71
2021/12/19 10:56:41;;;;;;;;;;;8.00;99.90;;;;;;8374074;28;19982;-70
2021/12/19 11:00:53;;;;;;;;;;;8.00;99.90;;;;;;8381617;28;19971;-70
2021/12/19 11:04:55;;;;;;;;;;;8.00;99.90;;;;;;8379277;28;19967;-70
2021/12/19 11:08:58;;;;;;;;;;;8.00;99.90;;;;;;8378807;28;19986;-70
2021/12/19 11:13:06;;;;;;;;;;;8.00;99.90;;;;;;8363578;28;19928;-70
2021/12/19 11:17:10;;;;;;;;;;;8.00;99.90;;;;;;8380997;28;19920;-70
2021/12/19 11:21:12;;;;;;;;;;;8.00;99.90;;;;;;8383531;28;19952;-70
2021/12/19 11:25:13;;;;;;;;;;;8.00;99.90;;;;;;8373484;28;19992;-70
2021/12/19 11:29:17;;;;;;;;;;;8.00;99.90;;;;;;8357027;28;19924;-70
2021/12/19 11:33:29;;;;;;;;;;;8.00;99.90;;;;;;8381893;28;19959;-70
2021/12/19 11:37:36;;;;;;;;;;;8.00;99.90;;;;;;8376995;28;20283;-70
2021/12/19 11:41:39;;;;;;;;;;;8.00;99.90;;;;;;8380323;28;19931;-70
2021/12/19 11:49:43;;;;;;;;;;;8.00;99.90;;;;;;8377029;28;19947;-70
2021/12/19 11:53:45;;;;;;;;;;;8.00;99.90;;;;;;8377844;28;20399;-70
2021/12/19 11:58:05;;;;;;;;;;;8.00;99.90;;;;;;8378672;28;20312;-69
2021/12/19 12:02:26;;;;;;;;;;;8.00;99.90;;;;;;8379625;28;19924;-70
2021/12/19 12:06:30;;;;;;;;;;;8.00;99.90;;;;;;8357731;28;20329;-70
2021/12/19 12:10:55;;;;;;;;;;;8.00;99.90;;;;;;8356938;28;19947;-70
2021/12/19 12:15:01;;;;;;;;;;;8.10;99.90;;;;;;8374319;28;19967;-70
2021/12/19 12:19:04;;;;;;;;;;;8.10;99.90;;;;;;8376323;28;19928;-70
2021/12/19 12:23:08;;;;;;;;;;;8.10;99.90;;;;;;8377008;28;19961;-71
2021/12/19 12:27:12;;;;;;;;;;;8.10;99.90;;;;;;8359016;28;19928;-71
2021/12/19 12:31:14;;;;;;;;;;;8.10;99.90;;;;;;8360822;28;20084;-70
2021/12/19 12:35:17;;;;;;;;;;;8.10;99.90;;;;;;8363351;28;19928;-70
2021/12/19 12:39:24;;;;;;;;;;;8.10;99.90;;;;;;8349622;28;19971;-69
2021/12/19 12:43:29;;;;;;;;;;;8.20;99.90;;;;;;8377344;28;20313;-70
2021/12/19 12:47:31;;;;;;;;;;;8.20;99.90;;;;;;8374083;28;20023;-70
2021/12/19 12:51:35;;;;;;;;;;;8.10;99.90;;;;;;8374518;28;20363;-70
2021/12/19 12:55:37;;;;;;;;;;;8.10;99.90;;;;;;8347342;28;20362;-70
2021/12/19 12:59:40;;;;;;;;;;;8.10;99.90;;;;;;8375687;28;19975;-70
2021/12/19 13:04:01;;;;;;;;;;;8.10;99.90;;;;;;8374642;28;19921;-70
2021/12/19 13:08:02;;;;;;;;;;;8.10;99.90;;;;;;8379098;28;19928;-70
2021/12/19 13:12:13;;;;;;;;;;;8.10;99.90;;;;;;8377961;28;19968;-69
2021/12/19 13:16:27;;;;;;;;;;;8.10;99.90;;;;;;8353550;28;19931;-71
2021/12/19 13:20:29;;;;;;;;;;;8.10;99.90;;;;;;8380611;28;19920;-69
2021/12/19 13:24:34;;;;;;;;;;;8.10;99.90;;;;;;8381469;28;19928;-70
2021/12/19 13:28:37;;;;;;;;;;;8.10;99.90;;;;;;8384625;28;19920;-70
2021/12/19 13:32:38;;;;;;;;;;;8.10;99.90;;;;;;8385698;28;19967;-70
2021/12/19 13:36:40;;;;;;;;;;;8.20;99.90;;;;;;8383377;28;19974;-71
2021/12/19 13:40:45;;;;;;;;;;;8.20;99.90;;;;;;8382574;28;20007;-71
2021/12/19 13:44:48;;;;;;;;;;;8.20;99.90;;;;;;8371355;28;19932;-70
2021/12/19 13:48:51;;;;;;;;;;;8.20;99.90;;;;;;8347066;28;19924;-70
2021/12/19 13:52:53;;;;;;;;;;;8.20;99.90;;;;;;8346852;28;20261;-70
2021/12/19 13:56:57;;;;;;;;;;;8.30;99.90;;;;;;8340553;28;21464;-70
2021/12/19 14:00:59;;;;;;;;;;;8.30;99.90;;;;;;8356667;28;19956;-70
2021/12/19 14:05:00;;;;;;;;;;;8.30;99.90;;;;;;8349527;28;19929;-70
2021/12/19 14:09:05;;;;;;;;;;;8.30;99.90;;;;;;8341280;28;19932;-70
2021/12/19 14:13:14;;;;;;;;;;;8.30;99.90;;;;;;8338043;28;19932;-71
2021/12/19 14:17:16;;;;;;;;;;;8.30;99.90;;;;;;8347584;28;20345;-70
2021/12/19 14:21:30;;;;;;;;;;;8.20;99.90;;;;;;8346138;28;20324;-70
2021/12/19 14:25:31;;;;;;;;;;;8.20;99.90;;;;;;8345402;28;20051;-71
2021/12/19 14:29:33;;;;;;;;;;;8.10;99.90;;;;;;8344527;28;19925;-70
2021/12/19 14:33:36;;;;;;;;;;;8.10;99.90;;;;;;8343116;28;20372;-70
2021/12/19 14:37:43;;;;;;;;;;;8.10;99.90;;;;;;8350670;28;20292;-70
2021/12/19 14:41:45;;;;;;;;;;;8.10;99.90;;;;;;8350920;28;19987;-70
2021/12/19 14:45:48;;;;;;;;;;;8.10;99.90;;;;;;8354969;28;20296;-69
2021/12/19 14:49:50;;;;;;;;;;;8.10;99.90;;;;;;8358581;28;19936;-70
2021/12/19 14:54:01;;;;;;;;;;;8.10;99.90;;;;;;8376776;28;19925;-70
2021/12/19 14:58:04;;;;;;;;;;;8.10;99.90;;;;;;8383067;28;19979;-71
2021/12/19 15:02:06;;;;;;;;;;;8.10;99.90;;;;;;8395279;28;19933;-70
2021/12/19 15:06:20;;;;;;;;;;;8.10;99.90;;;;;;8367220;28;19924;-70
2021/12/19 15:10:22;;;;;;;;;;;8.10;99.90;;;;;;8362403;28;19939;-69
2021/12/19 15:14:24;;;;;;;;;;;8.10;99.90;;;;;;8397535;28;20387;-71
2021/12/19 15:18:25;;;;;;;;;;;8.00;99.90;;;;;;8383639;28;19933;-69
2021/12/19 15:22:28;;;;;;;;;;;8.00;99.90;;;;;;8368061;28;19928;-70
2021/12/19 15:26:29;;;;;;;;;;;8.00;99.90;;;;;;8362908;28;20367;-70
2021/12/19 15:30:31;;;;;;;;;;;8.00;99.90;;;;;;8380897;28;19947;-70
2021/12/19 15:34:33;;;;;;;;;;;8.00;99.90;;;;;;8379076;28;19928;-70
2021/12/19 15:38:35;;;;;;;;;;;8.00;99.90;;;;;;8379684;28;20117;-71
2021/12/19 15:42:37;;;;;;;;;;;8.00;99.90;;;;;;8380136;28;19928;-70
2021/12/19 15:46:39;;;;;;;;;;;8.00;99.90;;;;;;8375844;28;19971;-70
2021/12/19 15:50:41;;;;;;;;;;;8.00;99.90;;;;;;8392140;28;20093;-70
2021/12/19 15:54:42;;;;;;;;;;;8.00;99.90;;;;;;8383735;28;19935;-71
2021/12/19 15:58:44;;;;;;;;;;;8.00;99.90;;;;;;8371296;28;19932;-71
2021/12/19 16:02:46;;;;;;;;;;;8.00;99.90;;;;;;8381328;28;19932;-70
2021/12/19 16:06:48;;;;;;;;;;;8.00;99.90;;;;;;8365613;28;19958;-70
2021/12/19 16:10:49;;;;;;;;;;;8.00;99.90;;;;;;8382050;28;20062;-70
2021/12/19 16:14:51;;;;;;;;;;;8.00;99.90;;;;;;8380745;28;20418;-71
2021/12/19 16:18:52;;;;;;;;;;;8.00;99.90;;;;;;8377006;28;19920;-70
2021/12/19 16:22:54;;;;;;;;;;;8.00;99.90;;;;;;8381972;28;19924;-70
2021/12/19 16:26:57;;;;;;;;;;;8.00;99.90;;;;;;8379188;28;19920;-71
2021/12/19 16:30:59;;;;;;;;;;;8.00;99.90;;;;;;8355060;28;19920;-70
2021/12/19 16:35:00;;;;;;;;;;;8.00;99.90;;;;;;8375832;28;19924;-70
2021/12/19 16:39:07;;;;;;;;;;;8.00;99.90;;;;;;8373897;28;19967;-70
2021/12/19 16:47:30;;;;;;;;;;;8.00;99.90;;;;;;8372151;28;19959;-70
2021/12/19 16:51:31;;;;;;;;;;;8.00;99.90;;;;;;8378795;28;19928;-70
2021/12/19 16:55:34;;;;;;;;;;;8.00;99.90;;;;;;8377689;28;20227;-71
2021/12/19 16:59:35;;;;;;;;;;;8.00;99.90;;;;;;8375646;28;19967;-70
2021/12/19 17:03:37;;;;;;;;;;;8.00;99.90;;;;;;8382405;28;19971;-70
2021/12/19 17:07:39;;;;;;;;;;;7.90;99.90;;;;;;8381404;28;19924;-71
2021/12/19 17:11:50;;;;;;;;;;;8.00;99.90;;;;;;8383263;28;19920;-70
2021/12/19 17:15:52;;;;;;;;;;;8.00;99.90;;;;;;8363262;28;20443;-70
2021/12/19 17:19:54;;;;;;;;;;;8.00;99.90;;;;;;8384553;28;19931;-70
2021/12/19 17:23:55;;;;;;;;;;;8.00;99.90;;;;;;8385989;28;19927;-70
2021/12/19 17:27:57;;;;;;;;;;;8.00;99.90;;;;;;8371511;28;20367;-71
2021/12/19 17:31:59;;;;;;;;;;;8.00;99.90;;;;;;8370877;28;20133;-70
2021/12/19 17:36:01;;;;;;;;;;;8.00;99.90;;;;;;8363118;28;20024;-70
2021/12/19 17:40:08;;;;;;;;;;;8.00;99.90;;;;;;8362188;28;20027;-70
2021/12/19 17:44:10;;;;;;;;;;;8.00;99.90;;;;;;8360727;28;19975;-71
2021/12/19 17:48:11;;;;;;;;;;;8.00;99.90;;;;;;8374031;28;19928;-70
2021/12/19 17:52:13;;;;;;;;;;;8.00;99.90;;;;;;8365248;28;20374;-70
2021/12/19 17:56:15;;;;;;;;;;;8.00;99.90;;;;;;8371646;28;19940;-71
2021/12/19 18:00:17;;;;;;;;;;;8.00;99.90;;;;;;8371862;28;20372;-70
2021/12/19 18:04:20;;;;;;;;;;;8.10;99.90;;;;;;8375339;28;20018;-70
2021/12/19 18:08:23;;;;;;;;;;;8.10;99.90;;;;;;8361360;28;20019;-70
2021/12/19 18:12:25;;;;;;;;;;;8.10;99.90;;;;;;8374913;28;20399;-70
2021/12/19 18:16:27;;;;;;;;;;;8.10;99.90;;;;;;8378766;28;19952;-71
2021/12/19 18:20:29;;;;;;;;;;;8.10;99.90;;;;;;8374764;28;19967;-70
2021/12/19 18:24:31;;;;;;;;;;;8.00;99.90;;;;;;8372245;28;19967;-70
2021/12/19 18:28:35;;;;;;;;;;;8.00;99.90;;;;;;8352840;28;20283;-71
2021/12/19 18:32:37;;;;;;;;;;;8.00;99.90;;;;;;8375640;28;20436;-71
2021/12/19 18:36:42;;;;;;;;;;;8.00;99.90;;;;;;8371447;28;19920;-69
2021/12/19 18:40:48;;;;;;;;;;;8.00;99.90;;;;;;8373072;28;19932;-70
2021/12/19 18:44:57;;;;;;;;;;;8.00;99.90;;;;;;8385391;28;19924;-70
2021/12/19 18:49:08;;;;;;;;;;;8.00;99.90;;;;;;8383682;28;19932;-70
2021/12/19 18:53:29;;;;;;;;;;;8.00;99.90;;;;;;8384552;28;19928;-70
2021/12/19 18:57:30;;;;;;;;;;;8.00;99.90;;;;;;8363515;28;19970;-70
2021/12/19 19:01:38;;;;;;;;;;;8.00;99.90;;;;;;8385291;28;19924;-70
2021/12/19 19:05:43;;;;;;;;;;;8.00;99.90;;;;;;8361014;28;20039;-70
2021/12/19 19:09:47;;;;;;;;;;;8.00;99.90;;;;;;8386236;28;19963;-70
2021/12/19 19:13:48;;;;;;;;;;;8.00;99.90;;;;;;8387309;28;19939;-70
2021/12/19 19:17:52;;;;;;;;;;;8.00;99.90;;;;;;8361994;28;20057;-70
2021/12/19 19:21:54;;;;;;;;;;;8.00;99.90;;;;;;8384196;28;20008;-70
2021/12/19 19:25:56;;;;;;;;;;;8.00;99.90;;;;;;8386027;28;20272;-70
2021/12/19 19:29:57;;;;;;;;;;;8.00;99.90;;;;;;8369981;28;19939;-70
2021/12/19 19:34:09;;;;;;;;;;;8.00;99.90;;;;;;8355722;28;19928;-71
2021/12/19 19:38:22;;;;;;;;;;;8.00;99.90;;;;;;8358261;28;19963;-70
2021/12/19 19:43:36;;;;;;;;;;;7.90;99.90;;;;;;8376804;28;20006;-70
2021/12/19 19:51:15;;;;;;;;;;;7.80;99.90;;;;;;8373458;28;19967;-70
2021/12/19 19:55:17;;;;;;;;;;;7.80;99.90;;;;;;8378631;28;19976;-70
2021/12/19 19:59:20;;;;;;;;;;;7.80;99.90;;;;;;8361580;28;19967;-70
2021/12/19 20:03:23;;;;;;;;;;;7.80;99.90;;;;;;8360587;28;19979;-70
2021/12/19 20:07:25;;;;;;;;;;;7.80;99.90;;;;;;8362605;28;20379;-70
2021/12/19 20:11:26;;;;;;;;;;;7.80;99.90;;;;;;8352810;28;19963;-70
2021/12/19 20:15:28;;;;;;;;;;;7.80;99.90;;;;;;8379552;28;19966;-70
2021/12/19 20:19:30;;;;;;;;;;;7.80;99.90;;;;;;8371087;28;19921;-70
2021/12/19 20:23:32;;;;;;;;;;;7.80;99.90;;;;;;8379227;28;20337;-70
2021/12/19 20:27:33;;;;;;;;;;;7.80;99.90;;;;;;8360476;28;20385;-70
2021/12/19 20:31:35;;;;;;;;;;;7.80;99.90;;;;;;8359055;28;20391;-70
2021/12/19 20:35:37;;;;;;;;;;;7.80;99.90;;;;;;8362002;28;20011;-71
2021/12/19 20:39:39;;;;;;;;;;;7.80;99.90;;;;;;8357553;28;19967;-71
2021/12/19 20:43:42;;;;;;;;;;;7.80;99.90;;;;;;8385549;28;19924;-70
2021/12/19 20:47:43;;;;;;;;;;;7.80;99.90;;;;;;8386557;28;20288;-70
2021/12/19 20:51:46;;;;;;;;;;;7.80;99.90;;;;;;8386689;28;19931;-70
2021/12/19 20:55:47;;;;;;;;;;;7.80;99.90;;;;;;8383467;28;20351;-70
2021/12/19 20:59:49;;;;;;;;;;;7.80;99.90;;;;;;8366732;28;19920;-70
2021/12/19 21:03:51;;;;;;;;;;;7.80;99.90;;;;;;8353219;28;20011;-70
2021/12/19 21:07:53;;;;;;;;;;;7.80;99.90;;;;;;8355823;28;19928;-70
2021/12/19 21:11:58;;;;;;;;;;;7.80;99.90;;;;;;8380761;28;20402;-71
2021/12/19 21:20:20;;;;;;;;;;;7.80;99.90;;;;;;8378351;28;19992;-70
2021/12/19 21:24:23;;;;;;;;;;;7.80;99.90;;;;;;8381139;28;19928;-71
2021/12/19 21:28:25;;;;;;;;;;;7.80;99.90;;;;;;8383552;28;19978;-70
2021/12/19 21:32:26;;;;;;;;;;;7.80;99.90;;;;;;8355380;28;19962;-71
2021/12/19 21:40:48;;;;;;;;;;;7.80;99.90;;;;;;8380429;28;20399;-70
2021/12/19 21:44:50;;;;;;;;;;;7.80;99.90;;;;;;8382134;28;19991;-70
2021/12/19 21:48:52;;;;;;;;;;;7.80;99.90;;;;;;8381923;28;20032;-70
2021/12/19 21:52:53;;;;;;;;;;;7.70;99.90;;;;;;8383784;28;20621;-70
2021/12/19 21:56:55;;;;;;;;;;;7.70;99.90;;;;;;8382130;28;19963;-71
2021/12/19 22:00:57;;;;;;;;;;;7.70;99.90;;;;;;8355229;28;20329;-70
2021/12/19 22:04:58;;;;;;;;;;;7.70;99.90;;;;;;8376792;28;19955;-70
2021/12/19 22:09:01;;;;;;;;;;;7.70;99.90;;;;;;8388721;28;19943;-70
2021/12/19 22:13:17;;;;;;;;;;;7.70;99.90;;;;;;8378840;28;19924;-70
2021/12/19 22:17:19;;;;;;;;;;;7.70;99.90;;;;;;8391628;28;19970;-70
2021/12/19 22:21:20;;;;;;;;;;;7.70;99.90;;;;;;8385162;28;19986;-70
2021/12/19 22:25:24;;;;;;;;;;;7.70;99.90;;;;;;8378575;28;20375;-70
2021/12/19 22:29:27;;;;;;;;;;;7.70;99.90;;;;;;8370287;28;19935;-70
2021/12/19 22:33:28;;;;;;;;;;;7.70;99.90;;;;;;8389793;28;19951;-70
2021/12/19 22:37:30;;;;;;;;;;;7.70;99.90;;;;;;8377282;28;20014;-70
2021/12/19 22:41:31;;;;;;;;;;;7.70;99.90;;;;;;8386698;28;20000;-71
2021/12/19 22:45:34;;;;;;;;;;;7.70;99.90;;;;;;8375228;28;20362;-70
2021/12/19 22:49:35;;;;;;;;;;;7.70;99.90;;;;;;8382728;28;19967;-70
2021/12/19 22:53:37;;;;;;;;;;;7.70;99.90;;;;;;8382350;28;19921;-70
2021/12/19 22:57:38;;;;;;;;;;;7.70;99.90;;;;;;8384799;28;19925;-70
2021/12/19 23:01:40;;;;;;;;;;;7.70;99.90;;;;;;8357559;28;19971;-70
2021/12/19 23:05:42;;;;;;;;;;;7.70;99.90;;;;;;8365772;28;20163;-70
2021/12/19 23:09:43;;;;;;;;;;;7.70;99.90;;;;;;8383083;28;19955;-70
2021/12/19 23:13:51;;;;;;;;;;;7.60;99.90;;;;;;8377133;28;19921;-70
2021/12/19 23:17:55;;;;;;;;;;;7.60;99.90;;;;;;8363236;28;19967;-70
2021/12/19 23:21:57;;;;;;;;;;;7.60;99.90;;;;;;8364288;28;19920;-70
2021/12/19 23:25:58;;;;;;;;;;;7.60;99.90;;;;;;8379606;28;19967;-71
2021/12/19 23:30:00;;;;;;;;;;;7.60;99.90;;;;;;8367169;28;19920;-71
2021/12/19 23:38:12;;;;;;;;;;;7.60;99.90;;;;;;8379082;28;19956;-70
2021/12/19 23:46:22;;;;;;;;;;;7.50;99.90;;;;;;8374627;28;19924;-70
2021/12/19 23:50:24;;;;;;;;;;;7.50;99.90;;;;;;8382141;28;20388;-70
2021/12/19 23:54:26;;;;;;;;;;;7.50;99.90;;;;;;8376053;28;19928;-71
2021/12/19 23:58:27;;;;;;;;;;;7.50;99.90;;;;;;8367794;28;19972;-70
